Aérodrome :
LOGIN :

S'inscrire | Disclaimer

   EN    FR    IT 

 










Légende :    VFR   VFR Marginal   IFR   IFR Intensif   IFR Très Intensif
Visi : 
Plafond : 
>= 8 km
>= 3000ft
5 à 8 km
1000 à 3000 ft
1500m à 5 km
500 à 1000 ft
800 à 1500m
200 à 500 ft
< 800m
< 200 ft
Symboles :   Orages  Brouillard  Fortes neiges  Fortes précipitations  Vent > 20 kt
SIGMETs :   Divers  Orages  Givrage  Turbulence  Onde Orograph.  Cendres Volcan.






- Altitude de l'aérodrome : 1535 ft
- Code IATA : OUD


GMFO - Ouja Angads

DERNIER METAR :
  • 231800Z 07007KT CAVOK 17/07 Q1029 NOSIG

METARs EXPIRÉS :
  • 231730Z 06008KT CAVOK 19/06 Q1029 NOSIG
  • 231700Z 05010KT CAVOK 21/04 Q1029 NOSIG
  • 231630Z 05011KT CAVOK 22/04 Q1029 NOSIG
  • 231600Z 05010KT CAVOK 22/05 Q1029 NOSIG
  • 231530Z 04011KT CAVOK 23/05 Q1029 NOSIG

TAF TAF GMFO
Valide du 23 à 18h jusqu'au 25 à 00h UTC


231700Z 2318/2424 06006KT CAVOK
PROB30
TEMPO 2404/2409 2000 BR NSC
BECMG 2411/2413 33015 33012KT



MET'MAP, la Météo Aéronautique d'un coup d'oeil ! - Copyright ORBIFLY Décembre 2007 - Disclaimer

ORBIFLY MET'MAP TEAM :

Programmation & Développement : Alexandra Zaïnal
Sur une idée originale de : Baudouin d'Aumeries
Assistance à la programmation : Marc-Olivier Méhu
Soutien technique & logistique : Manuel Goepfert

Contact : metmap@orbifly.com




SOURCES & CREDITS :

   NOAA